createdAt,value
2018-05-13T14:43:27.176Z,7.90
2018-05-13T14:45:57.499Z,8.03
2018-05-13T14:48:26.881Z,8.80
2018-05-13T14:50:58.185Z,7.80
2018-05-13T14:53:31.891Z,6.57
2018-05-13T14:56:00.410Z,6.60
2018-05-13T14:58:28.535Z,7.00
2018-05-13T15:00:56.677Z,8.43
2018-05-13T15:03:24.899Z,7.30
2018-05-13T15:05:53.989Z,8.63
2018-05-13T15:08:22.140Z,6.97
2018-05-13T15:10:50.308Z,7.93
2018-05-13T15:13:18.474Z,7.57
2018-05-13T15:15:46.622Z,7.20
2018-05-13T15:18:14.762Z,7.93
2018-05-13T15:20:49.329Z,7.73
2018-05-13T15:23:17.618Z,7.37
2018-05-13T15:25:45.735Z,8.60
2018-05-13T15:28:13.898Z,7.93
2018-05-13T15:30:41.999Z,6.77
2018-05-13T15:33:10.115Z,7.60
2018-05-13T15:35:38.261Z,7.13
2018-05-13T15:38:06.362Z,7.13
2018-05-13T15:40:34.490Z,8.20
2018-05-13T15:43:02.760Z,7.80
2018-05-13T15:45:31.097Z,8.13
2018-05-13T15:47:59.374Z,7.77
2018-05-13T15:50:27.506Z,8.20
2018-05-13T15:52:55.623Z,7.53
2018-05-13T15:55:24.478Z,7.78
2018-05-13T15:57:52.669Z,7.97
2018-05-13T16:00:20.768Z,8.10
2018-05-13T16:02:48.909Z,7.10
2018-05-13T16:05:17.038Z,7.00
2018-05-13T16:07:45.254Z,7.93
2018-05-13T16:10:13.399Z,8.20
2018-05-13T16:12:41.523Z,7.40
2018-05-13T16:15:11.061Z,8.10
2018-05-13T16:17:39.191Z,6.93
2018-05-13T16:20:07.340Z,7.77
2018-05-13T16:22:35.479Z,8.40
2018-05-13T16:25:03.818Z,8.10
2018-05-13T16:27:31.976Z,7.70
2018-05-13T16:30:00.179Z,7.93
2018-05-13T16:35:44.578Z,7.80
2018-05-13T16:38:13.794Z,8.40
2018-05-13T16:40:46.512Z,8.20
2018-05-13T16:43:17.322Z,8.82
2018-05-13T16:45:49.261Z,7.20
2018-05-13T16:48:25.888Z,7.87
2018-05-13T16:51:01.614Z,7.07
2018-05-13T16:53:54.304Z,6.20
2018-05-13T16:56:28.342Z,6.40
2018-05-13T16:58:56.748Z,6.70
2018-05-13T17:01:24.931Z,7.17
2018-05-13T17:03:53.187Z,6.60
2018-05-13T17:06:21.571Z,6.43
2018-05-13T17:08:50.977Z,6.13
2018-05-13T17:11:19.166Z,7.03
2018-05-13T17:13:49.184Z,6.10
2018-05-13T17:16:18.503Z,8.00
2018-05-13T17:18:57.546Z,7.80
2018-05-13T17:21:27.851Z,6.55
2018-05-13T17:23:56.465Z,6.60
2018-05-13T17:26:26.284Z,7.00
2018-05-13T17:28:54.900Z,7.00
2018-05-13T17:31:24.578Z,7.20
2018-05-13T17:33:53.283Z,6.87
2018-05-13T17:36:22.160Z,7.50
2018-05-13T17:38:51.472Z,7.50
2018-05-13T17:41:20.084Z,7.62
2018-05-13T17:43:51.087Z,7.40
2018-05-13T17:46:19.810Z,7.17
2018-05-13T17:48:49.009Z,8.30
2018-05-13T17:51:17.213Z,7.07
2018-05-13T17:53:45.337Z,7.97
2018-05-13T17:56:13.546Z,7.17
2018-05-13T17:58:42.631Z,7.50
2018-05-13T18:01:10.825Z,6.27
2018-05-13T18:03:39.001Z,7.87
2018-05-13T18:06:07.188Z,6.90
2018-05-13T18:08:35.572Z,7.33
2018-05-13T18:11:03.722Z,7.20
2018-05-13T18:13:31.874Z,7.70
2018-05-13T18:16:00.007Z,7.00
2018-05-13T18:18:28.165Z,8.10
2018-05-13T18:20:56.567Z,7.23
2018-05-13T18:23:25.083Z,7.15
2018-05-13T18:25:53.294Z,8.47
2018-05-13T18:28:21.425Z,8.03
2018-05-13T18:30:49.562Z,8.10
2018-05-13T18:33:17.764Z,7.80
2018-05-13T18:35:45.960Z,7.83
2018-05-13T18:38:14.081Z,8.10
2018-05-13T18:40:42.272Z,8.77
2018-05-13T18:43:10.412Z,8.83
2018-05-13T18:45:38.555Z,8.50
2018-05-13T18:48:06.850Z,8.30
2018-05-13T18:50:34.969Z,8.40
2018-05-13T18:55:37.637Z,8.10
2018-05-13T18:58:05.773Z,7.50
2018-05-13T19:00:33.886Z,7.50
2018-05-13T19:03:02.074Z,7.93
2018-05-13T19:05:30.199Z,7.37
2018-05-13T19:07:58.314Z,7.07
2018-05-13T19:10:26.475Z,6.40
2018-05-13T19:12:54.671Z,7.90
2018-05-13T19:15:22.804Z,6.93
2018-05-13T19:17:51.379Z,6.70
2018-05-13T19:20:19.501Z,6.10
2018-05-13T19:22:47.635Z,7.10
2018-05-13T19:25:15.794Z,6.37
2018-05-13T19:27:43.913Z,6.83
2018-05-13T19:30:12.042Z,6.23
2018-05-13T19:32:40.198Z,6.20
2018-05-13T19:35:08.425Z,7.03
2018-05-13T19:37:36.553Z,6.53
2018-05-13T19:40:04.709Z,6.47
2018-05-13T19:42:32.883Z,6.10
2018-05-13T19:45:01.011Z,6.30
2018-05-13T19:47:29.664Z,6.03
2018-05-13T19:49:57.835Z,5.93
2018-05-13T19:52:25.957Z,6.80
2018-05-13T19:54:54.122Z,5.47
2018-05-13T19:57:22.254Z,5.90
2018-05-13T19:59:50.406Z,6.27
2018-05-13T20:02:18.574Z,6.67
2018-05-13T20:04:46.688Z,6.80
2018-05-13T20:07:14.821Z,6.68
2018-05-13T20:09:43.918Z,6.40
2018-05-13T20:12:12.011Z,6.70
2018-05-13T20:14:40.244Z,6.00
2018-05-13T20:17:08.878Z,6.43
2018-05-13T20:19:37.020Z,6.10
2018-05-13T20:22:05.158Z,6.77
2018-05-13T20:24:33.301Z,6.10
2018-05-13T20:27:01.445Z,6.50
2018-05-13T20:29:29.566Z,6.90
2018-05-13T20:31:57.694Z,6.80
2018-05-13T20:34:25.835Z,7.37
2018-05-13T20:36:53.956Z,6.33
2018-05-13T20:39:22.082Z,6.97
2018-05-13T20:41:50.229Z,6.80
2018-05-13T20:44:18.421Z,7.33
2018-05-13T20:46:46.529Z,6.23
2018-05-13T20:49:14.653Z,6.37
2018-05-13T20:51:42.797Z,6.73
2018-05-13T20:54:10.932Z,7.43
2018-05-13T20:56:39.068Z,7.07
2018-05-13T20:59:07.229Z,6.82
2018-05-13T21:01:35.333Z,6.83
2018-05-13T21:04:03.468Z,6.50
2018-05-13T21:06:31.596Z,6.47
2018-05-13T21:08:59.720Z,7.00
2018-05-13T21:11:27.862Z,7.37
2018-05-13T21:13:56.027Z,7.60
2018-05-13T21:16:24.156Z,6.97
2018-05-13T21:18:52.289Z,8.03
2018-05-13T21:21:20.441Z,8.05
2018-05-13T21:23:48.571Z,6.90
2018-05-13T21:26:16.714Z,7.20
2018-05-13T21:28:45.175Z,7.20
2018-05-13T21:31:13.327Z,6.87
2018-05-13T21:33:41.471Z,6.80
2018-05-13T21:36:09.617Z,7.10
2018-05-13T21:38:37.758Z,7.30
2018-05-13T21:41:05.945Z,7.17
2018-05-13T21:43:34.089Z,7.63
2018-05-13T21:46:02.230Z,7.80
2018-05-13T21:48:31.668Z,6.30
2018-05-13T21:50:59.794Z,7.40
2018-05-13T21:53:27.919Z,7.63
2018-05-13T21:55:56.821Z,6.53
2018-05-13T21:58:24.957Z,7.10
2018-05-13T22:00:53.074Z,8.13
2018-05-13T22:03:21.194Z,8.87
2018-05-13T22:05:49.314Z,7.67
2018-05-13T22:08:17.438Z,7.90
2018-05-13T22:10:45.567Z,7.23
2018-05-13T22:13:13.706Z,7.40
2018-05-13T22:15:41.854Z,8.10
2018-05-13T22:18:09.979Z,8.13
2018-05-13T22:20:38.130Z,8.10
2018-05-13T22:23:06.363Z,8.27
2018-05-13T22:25:34.545Z,8.13
2018-05-13T22:28:02.835Z,8.57
2018-05-13T22:30:31.004Z,8.50
2018-05-13T22:32:59.196Z,8.37
2018-05-13T22:35:36.154Z,8.50
2018-05-13T22:38:04.286Z,8.00
2018-05-13T22:40:32.412Z,9.27
2018-05-13T22:43:00.528Z,9.13
2018-05-13T22:45:28.682Z,8.10
2018-05-13T22:47:56.797Z,7.40
2018-05-13T22:50:25.079Z,8.80
2018-05-13T22:52:53.217Z,8.43
2018-05-13T22:55:21.329Z,9.20
2018-05-13T22:57:49.562Z,8.73
2018-05-13T23:00:17.845Z,7.87
2018-05-13T23:02:46.022Z,8.23
2018-05-13T23:05:14.148Z,7.80
2018-05-13T23:07:42.331Z,8.20
2018-05-13T23:10:10.407Z,8.70
2018-05-13T23:12:38.568Z,8.10
2018-05-13T23:15:06.780Z,8.37
2018-05-13T23:17:34.892Z,9.50
2018-05-13T23:20:03.048Z,9.30
2018-05-13T23:22:35.110Z,8.43
2018-05-13T23:25:03.253Z,8.20
2018-05-13T23:27:31.366Z,9.50
2018-05-13T23:29:59.515Z,9.37
2018-05-13T23:32:28.454Z,9.00
2018-05-13T23:34:56.582Z,8.73
2018-05-13T23:37:24.718Z,9.00
2018-05-13T23:39:52.838Z,9.23
2018-05-13T23:42:20.962Z,9.40
2018-05-13T23:44:49.099Z,10.63
2018-05-13T23:47:17.226Z,8.55
2018-05-13T23:49:45.379Z,10.00
2018-05-13T23:52:13.502Z,9.10
2018-05-13T23:54:41.632Z,9.87
2018-05-13T23:57:09.818Z,9.60
2018-05-13T23:59:38.742Z,9.50
